Weather History for KLUA - April, 2014

Change the Weather History Date:

Tuesday, April 1, 2014

  Actual Average (KCHO) Record (KCHO)
Temperature  
Mean Temperature 54 °F 51 °F  
Max Temperature 75 °F 63 °F 88 °F (1986)
Min Temperature 33 °F 40 °F 14 °F (1923)
Degree Days  
Heating Degree Days 11 14  
Month to date heating degree days 14  
Since 1 July heating degree days 4018  
Cooling Degree Days 0 0  
Month to date cooling degree days 0  
Year to date cooling degree days 2  
Growing Degree Days 4 (Base 50)    
Moisture  
Dew Point 35 °F    
Average Humidity 59    
Maximum Humidity 100    
Minimum Humidity 25    
Precipitation  
Precipitation 0.00 in 0.12 in 0.28 in (2004)
Month to date precipitation 0.12  
Year to date precipitation 9.25  
Sea Level Pressure  
Sea Level Pressure 30.05 in    
Wind  
Wind Speed 2 mph (SSW)    
Max Wind Speed 10 mph    
Max Gust Speed -    
Visibility 10 miles    
Events      
T = Trace of Precipitation, MM = Missing Value Source: NWS Daily Summary

Daily Weather History Graph

Daily Weather History Graph

Search for Another Location

Airport or City:

Trip Planner

Search our weather history database for the weather conditions in past years. The results will help you decide how hot, cold, wet, or windy it might be!

Date:

Astronomy

Apr. 01, 2014 Rise Set
Actual Time 6:58 AM EDT 7:37 PM EDT
Civil Twilight 6:32 AM EDT 8:04 PM EDT
Nautical Twilight 6:00 AM EDT 8:35 PM EDT
Astronomical Twilight 5:28 AM EDT 9:08 PM EDT
Moon 8:01 AM EDT (4/1) 9:56 PM EDT (4/1)
Length of Visible Light 13h 32m
Length of Day
12h 38m
Waxing Crescent, 4% of the Moon is Illuminated
Apr 1
Waxing Crescent
Apr 7
First Quarter
Apr 15
Full
Apr 22
Last Quarter
Apr 29
New

Hourly Weather History & Observations

Time (EDT) Temp. Windchill Dew Point Humidity Pressure Visibility Wind Dir Wind Speed Gust Speed Precip Events Conditions
12:15 AM 42.8 °F - 33.8 °F 70% 30.12 in 10.0 mi Calm Calm - N/A   Clear
12:35 AM 42.8 °F - 32.0 °F 66% 30.12 in 10.0 mi Calm Calm - N/A   Clear
12:55 AM 39.2 °F - 33.8 °F 81% 30.12 in 10.0 mi Calm Calm - N/A   Clear
1:15 AM 42.8 °F - 33.8 °F 70% 30.12 in 10.0 mi Calm Calm - N/A   Clear
1:35 AM 41.0 °F - 32.0 °F 70% 30.11 in 10.0 mi Calm Calm - N/A   Clear
2:15 AM 37.4 °F - 33.8 °F 87% 30.11 in 10.0 mi Calm Calm - N/A   Clear
2:35 AM 39.2 °F 37.0 °F 32.0 °F 75% 30.11 in 10.0 mi SW 3.5 mph - N/A   Clear
2:55 AM 37.4 °F 34.9 °F 32.0 °F 81% 30.10 in 10.0 mi South 3.5 mph - N/A   Clear
3:15 AM 35.6 °F 30.7 °F 32.0 °F 87% 30.10 in 10.0 mi SSW 5.8 mph - N/A   Clear
3:35 AM 35.6 °F 32.8 °F 32.0 °F 87% 30.10 in 10.0 mi SSW 3.5 mph - N/A   Clear
3:55 AM 35.6 °F - 32.0 °F 87% 30.10 in 10.0 mi Calm Calm - N/A   Clear
4:15 AM 33.8 °F - 32.0 °F 93% 30.10 in 10.0 mi Calm Calm - N/A   Clear
4:35 AM 35.6 °F - 32.0 °F 87% 30.10 in 10.0 mi Calm Calm - N/A   Clear
4:55 AM 35.6 °F - 32.0 °F 87% 30.11 in 10.0 mi Calm Calm - N/A   Clear
5:15 AM 35.6 °F 32.8 °F 32.0 °F 87% 30.11 in 10.0 mi SSW 3.5 mph - N/A   Clear
5:35 AM 35.6 °F - 32.0 °F 87% 30.11 in 10.0 mi Calm Calm - N/A   Clear
5:55 AM 35.6 °F - 32.0 °F 87% 30.11 in 10.0 mi Calm Calm - N/A   Clear
6:15 AM 33.8 °F - 32.0 °F 93% 30.11 in 10.0 mi Calm Calm - N/A   Clear
6:35 AM 33.8 °F - 33.8 °F 100% 30.12 in 10.0 mi Calm Calm - N/A   Clear
6:55 AM 33.8 °F - 33.8 °F 100% 30.13 in 10.0 mi Calm Calm - N/A   Clear
7:15 AM 33.8 °F - 32.0 °F 93% 30.14 in 10.0 mi Calm Calm - N/A   Clear
7:35 AM 33.8 °F - 33.8 °F 100% 30.14 in 10.0 mi Calm Calm - N/A   Clear
7:55 AM 35.6 °F - 35.6 °F 100% 30.15 in 10.0 mi Calm Calm - N/A   Clear
8:15 AM 41.0 °F - 33.8 °F 76% 30.15 in 10.0 mi Calm Calm - N/A   Clear
8:35 AM 41.0 °F - 33.8 °F 76% 30.15 in 10.0 mi Calm Calm - N/A   Clear
8:55 AM 42.8 °F - 33.8 °F 70% 30.15 in 10.0 mi Calm Calm - N/A   Clear
9:15 AM 44.6 °F - 35.6 °F 71% 30.14 in 10.0 mi Calm Calm - N/A   Clear
9:35 AM 46.4 °F - 33.8 °F 62% 30.14 in 10.0 mi Calm Calm - N/A   Clear
9:55 AM 46.4 °F - 35.6 °F 66% 30.15 in 10.0 mi Calm Calm - N/A   Clear
10:15 AM 48.2 °F - 35.6 °F 62% 30.14 in 10.0 mi Calm Calm - N/A   Clear
10:35 AM 50.0 °F - 35.6 °F 58% 30.14 in 10.0 mi SSW 3.5 mph - N/A   Clear
10:55 AM 51.8 °F - 33.8 °F 50% 30.13 in 10.0 mi Calm Calm - N/A   Clear
11:15 AM 51.8 °F - 35.6 °F 54% 30.12 in 10.0 mi Calm Calm - N/A   Clear
11:35 AM 53.6 °F - 35.6 °F 51% 30.10 in 10.0 mi South 3.5 mph - N/A   Scattered Clouds
11:55 AM 53.6 °F - 33.8 °F 47% 30.09 in 10.0 mi SSW 4.6 mph - N/A   Mostly Cloudy
12:15 PM 53.6 °F - 35.6 °F 51% 30.08 in 10.0 mi SSW 4.6 mph - N/A   Mostly Cloudy
12:35 PM 59.0 °F - 35.6 °F 42% 30.07 in 10.0 mi SSW 3.5 mph - N/A   Scattered Clouds
12:55 PM 59.0 °F - 33.8 °F 39% 30.06 in 10.0 mi SSW 5.8 mph - N/A   Scattered Clouds
1:15 PM 59.0 °F - 33.8 °F 39% 30.05 in 10.0 mi SSW 4.6 mph - N/A   Clear
1:35 PM 62.6 °F - 33.8 °F 34% 30.04 in 10.0 mi SSW 5.8 mph - N/A   Clear
1:55 PM 66.2 °F - 33.8 °F 30% 30.02 in 10.0 mi SSW 4.6 mph - N/A   Scattered Clouds
2:15 PM 68.0 °F - 33.8 °F 28% 30.00 in 10.0 mi SW 10.4 mph - N/A   Scattered Clouds
2:35 PM 69.8 °F - 33.8 °F 27% 29.98 in 10.0 mi SSW 8.1 mph - N/A   Clear
2:55 PM 71.6 °F - 35.6 °F 27% 29.97 in 10.0 mi WSW 6.9 mph - N/A   Clear
3:15 PM 71.6 °F - 35.6 °F 27% 29.96 in 10.0 mi West 8.1 mph - N/A   Clear
3:35 PM 73.4 °F - 37.4 °F 27% 29.96 in 10.0 mi SW 6.9 mph - N/A   Clear
3:55 PM 73.4 °F - 37.4 °F 27% 29.94 in 10.0 mi SW 9.2 mph - N/A   Clear
4:15 PM 73.4 °F - 37.4 °F 27% 29.93 in 10.0 mi SSW 4.6 mph - N/A   Clear
4:35 PM 75.2 °F - 37.4 °F 25% 29.93 in 10.0 mi SSW 9.2 mph - N/A   Clear
4:55 PM 75.2 °F - 39.2 °F 27% 29.92 in 10.0 mi South 9.2 mph - N/A   Clear
5:15 PM 73.4 °F - 39.2 °F 29% 29.93 in 10.0 mi SSW 10.4 mph - N/A   Clear
5:35 PM 73.4 °F - 39.2 °F 29% 29.92 in 10.0 mi SSW 6.9 mph - N/A   Clear
5:55 PM 73.4 °F - 39.2 °F 29% 29.93 in 10.0 mi South 9.2 mph - N/A   Clear
6:15 PM 71.6 °F - 39.2 °F 31% 29.94 in 10.0 mi SW 6.9 mph - N/A   Clear
6:35 PM 71.6 °F - 39.2 °F 31% 29.95 in 10.0 mi SW 6.9 mph - N/A   Clear
6:55 PM 69.8 °F - 37.4 °F 31% 29.95 in 10.0 mi SW 8.1 mph - N/A   Clear
7:15 PM 68.0 °F - 37.4 °F 33% 29.96 in 10.0 mi SW 6.9 mph - N/A   Clear
7:35 PM 64.4 °F - 37.4 °F 37% 29.97 in 10.0 mi SSW 4.6 mph - N/A   Clear
7:55 PM 64.4 °F - 37.4 °F 37% 29.97 in 10.0 mi SSW 5.8 mph - N/A   Clear
8:15 PM 62.6 °F - 37.4 °F 39% 29.98 in 10.0 mi SW 8.1 mph - N/A   Clear
8:35 PM 62.6 °F - 37.4 °F 39% 29.99 in 10.0 mi SSW 5.8 mph - N/A   Clear
8:55 PM 59.0 °F - 37.4 °F 45% 29.99 in 10.0 mi SSE 4.6 mph - N/A   Clear
9:15 PM 55.4 °F - 39.2 °F 54% 30.00 in 10.0 mi ESE 3.5 mph - N/A   Clear
9:35 PM 51.8 °F - 39.2 °F 62% 30.00 in 10.0 mi SE 3.5 mph - N/A   Clear
9:55 PM 53.6 °F - 41.0 °F 62% 30.00 in 10.0 mi NW 3.5 mph - N/A   Clear
10:15 PM 51.8 °F - 39.2 °F 62% 30.00 in 10.0 mi Calm Calm - N/A   Clear
10:35 PM 51.8 °F - 39.2 °F 62% 30.00 in 10.0 mi Calm Calm - N/A   Clear
10:55 PM 48.2 °F - 39.2 °F 71% 30.01 in 10.0 mi Calm Calm - N/A   Clear
11:15 PM 48.2 °F - 39.2 °F 71% 30.01 in 10.0 mi SSW 3.5 mph - N/A   Clear
11:35 PM 46.4 °F - 39.2 °F 76% 30.01 in 10.0 mi Calm Calm - N/A   Clear
11:55 PM 46.4 °F - 39.2 °F 76% 30.01 in 10.0 mi Calm Calm - N/A   Clear